createdAt,value
2023-02-18T00:01:20.962Z,6.54
2023-02-18T00:03:49.338Z,6.50
2023-02-18T00:06:20.701Z,6.51
2023-02-18T00:08:49.845Z,6.48
2023-02-18T00:11:19.468Z,6.51
2023-02-18T00:13:52.480Z,6.51
2023-02-18T00:16:21.367Z,6.14
2023-02-18T00:18:49.878Z,6.37
2023-02-18T00:21:19.402Z,6.43
2023-02-18T00:23:47.571Z,3.86
2023-02-18T00:26:17.742Z,6.38
2023-02-18T00:28:48.534Z,6.34
2023-02-18T00:31:22.726Z,6.04
2023-02-18T00:33:51.410Z,6.34
2023-02-18T00:36:22.148Z,6.35
2023-02-18T00:38:56.187Z,6.50
2023-02-18T00:41:25.789Z,6.57
2023-02-18T00:43:53.958Z,6.45
2023-02-18T00:46:22.697Z,6.35
2023-02-18T00:48:50.940Z,6.13
2023-02-18T00:51:20.562Z,6.18
2023-02-18T00:53:48.685Z,6.31
2023-02-18T00:56:16.834Z,6.28
2023-02-18T00:58:45.093Z,6.14
2023-02-18T01:01:13.671Z,6.29
2023-02-18T01:03:43.319Z,6.26
2023-02-18T01:06:13.195Z,6.20
2023-02-18T01:08:43.263Z,6.25
2023-02-18T01:11:13.641Z,6.15
2023-02-18T01:13:43.133Z,6.17
2023-02-18T01:16:12.201Z,6.22
2023-02-18T01:18:41.283Z,6.26
2023-02-18T01:21:10.162Z,6.23
2023-02-18T01:23:39.608Z,6.23
2023-02-18T01:26:10.548Z,6.26
2023-02-18T01:28:39.110Z,5.81
2023-02-18T01:31:08.703Z,6.38
2023-02-18T01:33:37.250Z,6.33
2023-02-18T01:36:07.169Z,6.17
2023-02-18T01:38:35.750Z,6.19
2023-02-18T01:41:04.748Z,6.22
2023-02-18T01:43:35.158Z,6.20
2023-02-18T01:46:16.550Z,5.43
2023-02-18T01:48:47.778Z,6.15
2023-02-18T01:51:20.324Z,6.16
2023-02-18T01:53:53.867Z,6.12
2023-02-18T01:56:27.042Z,6.13
2023-02-18T01:59:01.375Z,6.13
2023-02-18T02:01:32.199Z,6.07
2023-02-18T02:04:00.979Z,6.12
2023-02-18T02:06:29.159Z,6.23
2023-02-18T02:09:01.129Z,6.21
2023-02-18T02:11:52.480Z,6.13
2023-02-18T02:14:44.422Z,5.91
2023-02-18T02:17:18.598Z,5.83
2023-02-18T02:20:24.715Z,5.86
2023-02-18T02:23:27.871Z,5.79
2023-02-18T02:26:39.559Z,5.77
2023-02-18T02:29:42.402Z,5.73
2023-02-18T02:32:51.914Z,5.74
2023-02-18T02:35:25.625Z,5.41
2023-02-18T02:38:02.278Z,5.78
2023-02-18T02:40:39.652Z,5.76
2023-02-18T02:43:19.512Z,4.59
2023-02-18T02:45:56.859Z,5.71
2023-02-18T02:48:33.639Z,4.78
2023-02-18T02:51:10.546Z,5.79
2023-02-18T02:53:42.457Z,5.64
2023-02-18T02:56:15.303Z,5.73
2023-02-18T02:58:44.493Z,5.64
2023-02-18T03:01:28.821Z,5.50
2023-02-18T03:04:14.854Z,5.52
2023-02-18T03:07:03.258Z,5.47
2023-02-18T03:09:43.081Z,5.47
2023-02-18T03:12:18.487Z,5.32
2023-02-18T03:14:59.821Z,5.34
2023-02-18T03:17:31.930Z,5.38
2023-02-18T03:20:10.585Z,5.41
2023-02-18T03:22:45.414Z,5.46
2023-02-18T03:25:15.768Z,5.05
2023-02-18T03:27:48.343Z,5.63
2023-02-18T03:30:19.674Z,5.57
2023-02-18T03:32:50.491Z,5.69
2023-02-18T03:35:20.492Z,5.25
2023-02-18T03:37:54.150Z,5.68
2023-02-18T03:40:22.571Z,5.63
2023-02-18T03:42:50.665Z,5.32
2023-02-18T03:45:18.881Z,5.70
2023-02-18T03:47:47.365Z,5.63
2023-02-18T03:50:15.687Z,5.63
2023-02-18T03:52:43.857Z,5.26
2023-02-18T03:55:13.409Z,5.63
2023-02-18T03:57:41.702Z,5.73
2023-02-18T04:00:11.726Z,5.82
2023-02-18T04:02:40.039Z,4.36
2023-02-18T04:05:08.731Z,5.69
2023-02-18T04:07:37.058Z,5.81
2023-02-18T04:10:05.959Z,5.52
2023-02-18T04:12:35.509Z,5.71
2023-02-18T04:15:03.655Z,5.74
2023-02-18T04:17:31.858Z,5.78
2023-02-18T04:19:59.959Z,5.77
2023-02-18T04:22:28.211Z,5.79
2023-02-18T04:24:56.314Z,5.83
2023-02-18T04:27:25.315Z,5.82
2023-02-18T04:29:54.915Z,5.75
2023-02-18T04:32:22.965Z,5.71
2023-02-18T04:34:51.073Z,5.69
2023-02-18T04:37:19.242Z,5.39
2023-02-18T04:39:47.356Z,5.73
2023-02-18T04:42:15.524Z,5.81
2023-02-18T04:44:44.731Z,5.72
2023-02-18T04:47:16.295Z,5.88
2023-02-18T04:49:44.472Z,5.54
2023-02-18T04:52:12.650Z,5.80
2023-02-18T04:54:40.761Z,5.88
2023-02-18T04:57:08.880Z,5.69
2023-02-18T04:59:37.057Z,5.81
2023-02-18T05:02:05.323Z,5.75
2023-02-18T05:04:34.852Z,5.73
2023-02-18T05:07:02.937Z,5.72
2023-02-18T05:09:31.230Z,5.74
2023-02-18T05:11:59.372Z,5.76
2023-02-18T05:14:27.651Z,5.78
2023-02-18T05:16:55.835Z,5.81
2023-02-18T05:19:24.033Z,5.84
2023-02-18T05:21:53.556Z,5.44
2023-02-18T05:24:21.693Z,5.75
2023-02-18T05:26:49.836Z,5.78
2023-02-18T05:29:18.105Z,5.73
2023-02-18T05:31:46.326Z,5.67
2023-02-18T05:34:14.592Z,5.55
2023-02-18T05:36:42.666Z,5.67
2023-02-18T05:39:12.205Z,5.73
2023-02-18T05:41:40.443Z,5.58
2023-02-18T05:44:26.120Z,5.76
2023-02-18T05:46:54.252Z,5.59
2023-02-18T05:49:22.883Z,5.34
2023-02-18T05:51:51.029Z,5.59
2023-02-18T05:54:20.723Z,5.74
2023-02-18T05:56:49.192Z,5.60
2023-02-18T05:59:17.418Z,5.71
2023-02-18T06:01:45.599Z,5.57
2023-02-18T06:04:14.272Z,5.73
2023-02-18T06:06:42.657Z,5.74
2023-02-18T06:09:11.330Z,5.75
2023-02-18T06:11:40.950Z,5.85
2023-02-18T06:14:09.301Z,5.05
2023-02-18T06:16:37.445Z,5.79
2023-02-18T06:19:05.603Z,5.63
2023-02-18T06:21:33.943Z,5.49
2023-02-18T06:24:02.040Z,5.57
2023-02-18T06:26:30.181Z,5.58
2023-02-18T06:28:59.714Z,5.57
2023-02-18T06:31:27.978Z,5.62
2023-02-18T06:33:56.230Z,5.67
2023-02-18T06:36:24.356Z,5.57
2023-02-18T06:38:54.139Z,5.60
2023-02-18T06:41:22.261Z,5.57
2023-02-18T06:43:50.462Z,5.61
2023-02-18T06:46:20.032Z,5.83
2023-02-18T06:48:48.147Z,5.77
2023-02-18T06:51:17.222Z,4.99
2023-02-18T06:53:45.462Z,5.95
2023-02-18T06:56:13.577Z,5.89
2023-02-18T06:58:41.663Z,5.88
2023-02-18T07:01:10.104Z,6.00
2023-02-18T07:03:39.745Z,5.95
2023-02-18T07:06:08.728Z,6.10
2023-02-18T07:08:37.743Z,6.13
2023-02-18T07:11:06.418Z,5.99
2023-02-18T07:13:34.527Z,6.12
2023-02-18T07:16:02.655Z,6.20
2023-02-18T07:18:30.794Z,6.02
2023-02-18T07:21:00.387Z,6.30
2023-02-18T07:23:28.497Z,6.21
2023-02-18T07:26:05.212Z,6.43
2023-02-18T07:28:33.605Z,6.46
2023-02-18T07:31:01.751Z,6.38
2023-02-18T07:33:30.145Z,6.66
2023-02-18T07:35:59.282Z,6.66
2023-02-18T07:38:29.444Z,6.19
2023-02-18T07:40:58.407Z,6.75
2023-02-18T07:43:26.803Z,6.74
2023-02-18T07:45:55.470Z,6.78
2023-02-18T07:48:23.687Z,6.80
2023-02-18T07:50:51.931Z,6.89
2023-02-18T07:53:20.196Z,6.68
2023-02-18T07:55:52.780Z,6.83
2023-02-18T07:58:23.268Z,7.06
2023-02-18T08:00:52.171Z,7.26
2023-02-18T08:03:21.349Z,7.54
2023-02-18T08:05:50.382Z,5.03
2023-02-18T08:08:22.007Z,7.50
2023-02-18T08:10:52.619Z,7.61
2023-02-18T08:13:22.591Z,7.54
2023-02-18T08:15:51.002Z,7.76
2023-02-18T08:18:21.879Z,7.73
2023-02-18T08:20:51.912Z,7.87
2023-02-18T08:23:21.886Z,7.90
2023-02-18T08:25:52.824Z,7.95
2023-02-18T08:28:22.340Z,8.05
2023-02-18T08:30:52.113Z,8.08
2023-02-18T08:33:20.957Z,8.15
2023-02-18T08:35:50.387Z,8.17
2023-02-18T08:38:18.477Z,8.22
2023-02-18T08:40:47.047Z,8.22
2023-02-18T08:43:17.579Z,8.28
2023-02-18T08:45:46.332Z,8.24
2023-02-18T08:48:20.341Z,8.40
2023-02-18T08:50:49.007Z,8.49
2023-02-18T08:53:17.713Z,8.61
2023-02-18T08:55:46.367Z,8.65
2023-02-18T08:58:17.404Z,8.80
2023-02-18T09:00:46.113Z,8.86
2023-02-18T09:03:15.399Z,9.00
2023-02-18T09:05:44.144Z,8.90
2023-02-18T09:08:12.426Z,9.02
2023-02-18T09:10:40.690Z,8.84
2023-02-18T09:13:08.993Z,9.11
2023-02-18T09:15:38.922Z,9.52
2023-02-18T09:18:07.339Z,9.80
2023-02-18T09:20:35.612Z,10.01
2023-02-18T09:23:04.307Z,10.29
2023-02-18T09:25:32.663Z,10.64
2023-02-18T09:28:00.870Z,10.81
2023-02-18T09:30:29.037Z,11.08
2023-02-18T09:32:58.551Z,11.30
2023-02-18T09:35:26.746Z,11.49
2023-02-18T09:37:54.938Z,11.59
2023-02-18T09:40:27.843Z,11.88
2023-02-18T09:42:57.938Z,11.80
2023-02-18T09:45:26.992Z,12.30
2023-02-18T09:47:55.731Z,12.49
2023-02-18T09:50:28.427Z,12.49
2023-02-18T09:52:59.937Z,12.72
2023-02-18T09:55:31.289Z,12.93
2023-02-18T09:58:03.411Z,13.09
2023-02-18T10:00:37.570Z,13.22
2023-02-18T10:03:09.243Z,13.41
2023-02-18T10:05:42.494Z,13.32
2023-02-18T10:08:21.947Z,13.70
2023-02-18T10:10:50.302Z,13.74
2023-02-18T10:13:20.927Z,13.89
2023-02-18T10:15:49.837Z,13.75
2023-02-18T10:21:07.685Z,13.74
2023-02-18T10:23:38.587Z,13.42
2023-02-18T10:26:11.471Z,13.74
2023-02-18T10:28:39.689Z,13.89
2023-02-18T10:31:11.504Z,14.03
2023-02-18T10:33:48.554Z,14.08
2023-02-18T10:36:26.136Z,14.26
2023-02-18T10:39:07.879Z,14.42
2023-02-18T10:41:41.698Z,14.04
2023-02-18T10:44:17.636Z,14.48
2023-02-18T10:46:55.924Z,14.75
2023-02-18T10:49:45.331Z,14.64
2023-02-18T10:52:19.160Z,14.57
2023-02-18T10:54:53.692Z,14.51
2023-02-18T10:57:23.899Z,15.06
2023-02-18T11:00:01.524Z,15.22
2023-02-18T11:02:33.004Z,14.62
2023-02-18T11:05:08.922Z,14.60
2023-02-18T11:07:40.780Z,14.79
2023-02-18T11:10:18.095Z,15.37
2023-02-18T11:12:48.711Z,15.41
2023-02-18T11:15:23.776Z,15.60
2023-02-18T11:17:54.550Z,15.56
2023-02-18T11:20:30.410Z,14.66
2023-02-18T11:23:14.705Z,15.74
2023-02-18T11:25:53.787Z,15.78
2023-02-18T11:28:32.200Z,15.82
2023-02-18T11:31:03.758Z,15.76
2023-02-18T11:33:36.007Z,15.99
2023-02-18T11:36:20.076Z,15.98
2023-02-18T11:38:55.695Z,15.30
2023-02-18T11:41:33.264Z,15.96
2023-02-18T11:44:02.913Z,15.77
2023-02-18T11:46:31.220Z,15.79
2023-02-18T11:49:21.541Z,15.73
2023-02-18T11:51:51.568Z,15.68
2023-02-18T11:54:27.436Z,15.58
2023-02-18T11:56:59.059Z,15.74
2023-02-18T11:59:28.190Z,15.78
2023-02-18T12:02:02.713Z,15.80
2023-02-18T12:04:37.991Z,15.46
2023-02-18T12:07:17.734Z,15.95
2023-02-18T12:09:50.844Z,15.99
2023-02-18T12:12:26.212Z,16.17
2023-02-18T12:14:56.875Z,16.26
2023-02-18T12:17:42.661Z,16.26
2023-02-18T12:20:46.823Z,16.28
2023-02-18T12:23:23.987Z,16.39
2023-02-18T12:26:03.908Z,16.46
2023-02-18T12:28:48.200Z,15.71
2023-02-18T12:31:35.639Z,16.53
2023-02-18T12:34:24.906Z,16.42
2023-02-18T12:37:06.626Z,16.71
2023-02-18T12:39:49.860Z,16.83
2023-02-18T12:42:37.653Z,16.98
2023-02-18T12:45:29.413Z,17.07
2023-02-18T12:48:21.296Z,17.14
2023-02-18T12:51:12.514Z,17.02
2023-02-18T12:54:07.109Z,17.05
2023-02-18T12:56:58.512Z,17.04
2023-02-18T13:00:00.330Z,17.05
2023-02-18T13:02:58.377Z,16.86
2023-02-18T13:05:33.310Z,16.98
2023-02-18T13:08:18.900Z,16.83
2023-02-18T13:10:59.973Z,16.84
2023-02-18T13:13:33.329Z,16.67
2023-02-18T13:16:06.494Z,16.37
2023-02-18T13:18:37.968Z,16.44
2023-02-18T13:21:08.938Z,16.38
2023-02-18T13:23:41.240Z,16.50
2023-02-18T13:26:14.861Z,16.66
2023-02-18T13:28:51.448Z,16.81
2023-02-18T13:31:33.581Z,16.60
2023-02-18T13:34:07.621Z,16.80
2023-02-18T13:36:47.414Z,16.76
2023-02-18T13:39:20.659Z,16.68
2023-02-18T13:41:51.584Z,16.71
2023-02-18T13:44:41.957Z,16.71
2023-02-18T13:47:11.925Z,17.00
2023-02-18T13:49:42.920Z,17.04
2023-02-18T13:52:20.652Z,17.08
2023-02-18T13:54:51.987Z,16.89
2023-02-18T13:57:23.153Z,16.40
2023-02-18T13:59:57.969Z,16.40
2023-02-18T14:02:36.252Z,17.63
2023-02-18T14:05:22.354Z,19.03
2023-02-18T14:07:52.494Z,20.62
2023-02-18T14:10:34.134Z,21.62
2023-02-18T14:13:20.687Z,23.03
2023-02-18T14:15:56.711Z,24.74
2023-02-18T14:18:55.800Z,25.05
2023-02-18T14:21:37.985Z,26.60
2023-02-18T14:24:08.403Z,25.80
2023-02-18T14:26:45.643Z,26.03
2023-02-18T14:29:19.351Z,25.26
2023-02-18T14:31:53.717Z,24.87
2023-02-18T14:35:08.299Z,25.02
2023-02-18T14:38:12.084Z,24.76
2023-02-18T14:40:59.911Z,24.89
2023-02-18T14:43:48.633Z,23.91
2023-02-18T14:46:30.290Z,22.27
2023-02-18T14:49:30.116Z,22.94
2023-02-18T14:52:00.946Z,22.85
2023-02-18T14:54:31.291Z,23.24
2023-02-18T14:57:02.902Z,21.80
2023-02-18T14:59:35.993Z,20.62
2023-02-18T15:02:04.107Z,20.40
2023-02-18T15:04:32.314Z,19.67
2023-02-18T15:07:04.775Z,18.55
2023-02-18T15:09:33.192Z,17.47
2023-02-18T15:12:04.657Z,16.24
2023-02-18T15:14:37.363Z,15.88
2023-02-18T15:17:07.119Z,15.20
2023-02-18T15:19:41.083Z,15.18
2023-02-18T15:22:18.464Z,14.87
2023-02-18T15:24:47.122Z,14.59
2023-02-18T15:27:18.454Z,14.35
2023-02-18T15:29:50.820Z,14.21
2023-02-18T15:32:21.182Z,14.08
2023-02-18T15:34:52.871Z,13.94
2023-02-18T15:37:22.503Z,13.90
2023-02-18T15:39:50.928Z,13.55
2023-02-18T15:42:27.091Z,12.96
2023-02-18T15:44:58.484Z,13.54
2023-02-18T15:47:27.210Z,13.33
2023-02-18T15:49:58.170Z,13.21
2023-02-18T15:52:30.829Z,12.67
2023-02-18T15:55:04.310Z,12.67
2023-02-18T15:57:34.139Z,12.46
2023-02-18T16:00:06.639Z,12.45
2023-02-18T16:02:35.388Z,12.22
2023-02-18T16:05:05.540Z,12.03
2023-02-18T16:07:50.531Z,11.90
2023-02-18T16:10:22.254Z,11.85
2023-02-18T16:12:54.201Z,11.62
2023-02-18T16:15:27.380Z,11.33
2023-02-18T16:17:56.119Z,11.12
2023-02-18T16:20:32.009Z,11.14
2023-02-18T16:23:05.669Z,10.96
2023-02-18T16:25:43.059Z,10.76
2023-02-18T16:28:16.518Z,9.63
2023-02-18T16:30:46.568Z,10.37
2023-02-18T16:33:15.030Z,10.43
2023-02-18T16:35:49.969Z,10.29
2023-02-18T16:38:22.395Z,9.90
2023-02-18T16:40:51.096Z,10.19
2023-02-18T16:43:21.547Z,10.03
2023-02-18T16:45:51.944Z,9.73
2023-02-18T16:48:25.550Z,9.78
2023-02-18T16:50:54.671Z,9.70
2023-02-18T16:53:24.971Z,9.21
2023-02-18T16:55:53.283Z,9.56
2023-02-18T16:58:21.459Z,9.42
2023-02-18T17:00:52.189Z,9.40
2023-02-18T17:03:22.110Z,9.48
2023-02-18T17:05:50.414Z,9.32
2023-02-18T17:08:23.361Z,9.27
2023-02-18T17:10:54.537Z,9.26
2023-02-18T17:13:24.690Z,9.19
2023-02-18T17:15:54.789Z,9.25
2023-02-18T17:18:24.060Z,9.22
2023-02-18T17:20:53.741Z,9.19
2023-02-18T17:23:24.134Z,9.03
2023-02-18T17:25:54.651Z,8.88
2023-02-18T17:28:23.283Z,8.81
2023-02-18T17:30:56.617Z,8.68
2023-02-18T17:33:26.336Z,8.67
2023-02-18T17:35:55.126Z,8.45
2023-02-18T17:38:23.810Z,8.74
2023-02-18T17:40:53.494Z,8.69
2023-02-18T17:43:23.923Z,8.59
2023-02-18T17:45:54.314Z,8.61
2023-02-18T17:48:23.564Z,8.63
2023-02-18T17:50:52.616Z,8.26
2023-02-18T17:53:21.292Z,8.65
2023-02-18T17:55:50.031Z,8.47
2023-02-18T17:58:19.725Z,8.48
2023-02-18T18:00:50.581Z,8.10
2023-02-18T18:03:19.447Z,8.33
2023-02-18T18:05:49.466Z,8.25
2023-02-18T18:08:17.908Z,8.29
2023-02-18T18:10:50.315Z,8.22
2023-02-18T18:13:23.741Z,8.14
2023-02-18T18:15:52.525Z,7.39
2023-02-18T18:18:20.993Z,7.90
2023-02-18T18:20:52.026Z,7.93
2023-02-18T18:23:21.800Z,7.94
2023-02-18T18:25:52.236Z,7.95
2023-02-18T18:28:21.827Z,7.93
2023-02-18T18:30:52.424Z,7.97
2023-02-18T18:33:22.989Z,7.71
2023-02-18T18:35:52.958Z,7.59
2023-02-18T18:38:22.154Z,7.00
2023-02-18T18:40:51.774Z,7.39
2023-02-18T18:43:23.953Z,7.61
2023-02-18T18:45:52.928Z,7.72
2023-02-18T18:48:22.200Z,7.60
2023-02-18T18:50:50.963Z,7.33
2023-02-18T18:53:20.959Z,7.53
2023-02-18T18:55:49.721Z,7.41
2023-02-18T18:58:21.070Z,7.28
2023-02-18T19:00:52.675Z,7.32
2023-02-18T19:03:22.222Z,7.23
2023-02-18T19:05:51.343Z,7.27
2023-02-18T19:08:20.717Z,7.16
2023-02-18T19:10:50.148Z,7.23
2023-02-18T19:13:20.203Z,7.17
2023-02-18T19:15:51.373Z,7.17
2023-02-18T19:18:21.013Z,7.20
2023-02-18T19:20:49.577Z,6.40
2023-02-18T19:23:17.665Z,7.24
2023-02-18T19:25:45.925Z,6.68
2023-02-18T19:28:15.033Z,7.24
2023-02-18T19:30:43.624Z,7.23
2023-02-18T19:33:15.159Z,7.18
2023-02-18T19:35:44.024Z,6.99
2023-02-18T19:38:13.872Z,7.16
2023-02-18T19:40:42.368Z,7.20
2023-02-18T19:43:11.945Z,7.07
2023-02-18T19:45:43.901Z,7.08
2023-02-18T19:48:14.070Z,6.58
2023-02-18T19:50:43.619Z,7.14
2023-02-18T19:53:12.611Z,6.92
2023-02-18T19:55:40.786Z,7.14
2023-02-18T19:58:09.127Z,7.00
2023-02-18T20:00:37.289Z,6.89
2023-02-18T20:03:05.590Z,6.83
2023-02-18T20:05:38.602Z,6.81
2023-02-18T20:08:06.693Z,6.83
2023-02-18T20:10:34.935Z,6.83
2023-02-18T20:13:04.638Z,6.48
2023-02-18T20:15:33.037Z,6.74
2023-02-18T20:18:01.324Z,6.79
2023-02-18T20:20:29.583Z,6.89
2023-02-18T20:22:59.052Z,6.89
2023-02-18T20:25:28.377Z,6.82
2023-02-18T20:28:01.236Z,6.72
2023-02-18T20:30:30.220Z,6.65
2023-02-18T20:32:58.509Z,6.55
2023-02-18T20:35:27.049Z,6.30
2023-02-18T20:37:55.227Z,6.53
2023-02-18T20:40:24.770Z,6.37
2023-02-18T20:42:52.900Z,6.46
2023-02-18T20:45:21.093Z,6.37
2023-02-18T20:47:49.277Z,6.13
2023-02-18T20:50:17.545Z,6.46
2023-02-18T20:52:45.903Z,6.23
2023-02-18T20:55:14.482Z,6.20
2023-02-18T20:57:44.047Z,6.19
2023-02-18T21:00:13.378Z,6.18
2023-02-18T21:02:41.573Z,5.86
2023-02-18T21:05:09.790Z,6.29
2023-02-18T21:07:37.968Z,6.29
2023-02-18T21:10:06.706Z,6.13
2023-02-18T21:12:34.851Z,6.13
2023-02-18T21:15:04.634Z,5.97
2023-02-18T21:17:32.801Z,6.11
2023-02-18T21:20:01.463Z,6.22
2023-02-18T21:22:29.584Z,6.09
2023-02-18T21:24:59.214Z,5.55
2023-02-18T21:27:27.411Z,6.04
2023-02-18T21:29:55.543Z,5.43
2023-02-18T21:32:25.140Z,6.16
2023-02-18T21:34:53.594Z,5.98
2023-02-18T21:37:21.769Z,6.01
2023-02-18T21:39:49.816Z,6.13
2023-02-18T21:42:17.941Z,5.93
2023-02-18T21:44:46.072Z,5.74
2023-02-18T21:47:14.286Z,3.49
2023-02-18T21:49:43.808Z,5.62
2023-02-18T21:52:11.901Z,5.66
2023-02-18T21:54:41.305Z,5.71
2023-02-18T21:57:11.955Z,5.63
2023-02-18T21:59:41.153Z,5.17
2023-02-18T22:02:15.590Z,5.75
2023-02-18T22:04:45.166Z,5.67
2023-02-18T22:07:13.569Z,5.86
2023-02-18T22:09:41.813Z,5.80
2023-02-18T22:12:11.875Z,5.32
2023-02-18T22:14:40.527Z,4.61
2023-02-18T22:17:08.753Z,5.50
2023-02-18T22:19:37.130Z,5.59
2023-02-18T22:22:06.937Z,5.61
2023-02-18T22:24:35.383Z,5.50
2023-02-18T22:27:03.841Z,5.46
2023-02-18T22:29:32.759Z,5.39
2023-02-18T22:32:01.233Z,5.52
2023-02-18T22:34:29.522Z,5.49
2023-02-18T22:36:57.737Z,5.57
2023-02-18T22:39:27.670Z,5.31
2023-02-18T22:41:55.903Z,5.39
2023-02-18T22:44:26.288Z,5.49
2023-02-18T22:46:56.246Z,5.43
2023-02-18T22:49:24.932Z,5.52
2023-02-18T22:51:54.942Z,5.40
2023-02-18T22:54:23.381Z,5.69
2023-02-18T22:56:54.509Z,5.63
2023-02-18T22:59:22.658Z,5.62
2023-02-18T23:01:53.093Z,5.72
2023-02-18T23:04:22.316Z,5.61
2023-02-18T23:06:51.365Z,5.39
2023-02-18T23:09:22.333Z,5.25
2023-02-18T23:11:53.669Z,4.02
2023-02-18T23:14:22.701Z,4.98
2023-02-18T23:17:10.568Z,4.97
2023-02-18T23:19:39.277Z,4.98
2023-02-18T23:22:07.525Z,4.96
2023-02-18T23:24:36.342Z,4.63
2023-02-18T23:27:06.861Z,4.99
2023-02-18T23:29:35.462Z,5.03
2023-02-18T23:32:03.919Z,4.85
2023-02-18T23:34:32.563Z,5.10
2023-02-18T23:37:00.733Z,5.12
2023-02-18T23:39:29.640Z,5.22
2023-02-18T23:41:58.502Z,5.24
2023-02-18T23:44:28.987Z,5.28
2023-02-18T23:46:57.314Z,5.26
2023-02-18T23:49:27.274Z,5.26
2023-02-18T23:51:57.288Z,5.17
2023-02-18T23:54:25.732Z,5.08
2023-02-18T23:56:53.867Z,5.06
2023-02-18T23:59:22.086Z,5.20
